Time;durP1;ratioP1;P1;durP2;ratioP2;P2;SDS_P1;SDS_P2;PMS_P1;PMS_P2;Temp;Humidity;BMP_temperature;BMP_pressure;BME280_temperature;BME280_humidity;BME280_pressure;Samples;Min_cycle;Max_cycle;Signal;HPM_P1;HPM_P2
2023/10/13 00:02:01;;;;;;;12.90;6.40;;;;;;;;;;5090963;28;20646;-81
2023/10/13 00:04:31;;;;;;;13.77;5.90;;;;;;;;;;5085984;28;20017;-81
2023/10/13 00:06:57;;;;;;;13.75;6.63;;;;;;;;;;5071744;28;20021;-81
2023/10/13 00:09:32;;;;;;;10.88;6.28;;;;;;;;;;5090843;28;20027;-81
2023/10/13 00:11:58;;;;;;;10.18;5.82;;;;;;;;;;5091736;28;20072;-81
2023/10/13 00:14:35;;;;;;;15.10;6.65;;;;;;;;;;5054881;28;20045;-81
2023/10/13 00:17:07;;;;;;;9.02;5.78;;;;;;;;;;5070653;28;20461;-80
2023/10/13 00:19:38;;;;;;;9.88;6.47;;;;;;;;;;5070599;28;20024;-82
2023/10/13 00:22:11;;;;;;;8.52;5.28;;;;;;;;;;5074647;28;20028;-80
2023/10/13 00:24:51;;;;;;;10.18;5.60;;;;;;;;;;5087188;28;20024;-81
2023/10/13 00:27:29;;;;;;;11.05;6.13;;;;;;;;;;5075121;28;20161;-81
2023/10/13 00:32:53;;;;;;;13.52;6.05;;;;;;;;;;5088739;28;20114;-80
2023/10/13 00:35:25;;;;;;;11.20;5.43;;;;;;;;;;5092351;28;20032;-80
2023/10/13 00:37:59;;;;;;;11.68;5.65;;;;;;;;;;5080787;28;20086;-81
2023/10/13 00:43:34;;;;;;;11.23;6.25;;;;;;;;;;5091120;28;20077;-81
2023/10/13 00:46:06;;;;;;;10.63;6.18;;;;;;;;;;5082479;28;20552;-80
2023/10/13 00:48:33;;;;;;;15.25;5.60;;;;;;;;;;5077112;28;20474;-81
2023/10/13 00:51:06;;;;;;;11.48;7.28;;;;;;;;;;5076495;28;20025;-80
2023/10/13 00:53:33;;;;;;;10.82;6.57;;;;;;;;;;5078351;28;20028;-81
2023/10/13 00:56:07;;;;;;;11.75;5.85;;;;;;;;;;5073260;28;20093;-76
2023/10/13 00:58:40;;;;;;;11.70;5.70;;;;;;;;;;5067642;28;20122;-76
2023/10/13 01:01:18;;;;;;;17.10;6.60;;;;;;;;;;5081865;28;20081;-75
2023/10/13 01:03:55;;;;;;;15.75;6.53;;;;;;;;;;5054393;28;20033;-76
2023/10/13 01:06:26;;;;;;;11.30;5.22;;;;;;;;;;5078538;28;20078;-76
2023/10/13 01:09:14;;;;;;;9.98;4.90;;;;;;;;;;5070297;28;20505;-76
2023/10/13 01:11:44;;;;;;;12.82;5.97;;;;;;;;;;5068335;28;20111;-75
2023/10/13 01:14:17;;;;;;;8.77;5.53;;;;;;;;;;5069065;28;20062;-76
2023/10/13 01:16:44;;;;;;;9.45;5.15;;;;;;;;;;5071662;28;20032;-75
2023/10/13 01:19:28;;;;;;;10.30;5.80;;;;;;;;;;5092446;28;20020;-74
2023/10/13 01:22:01;;;;;;;11.95;5.57;;;;;;;;;;5082819;28;20035;-74
2023/10/13 01:24:31;;;;;;;9.70;5.30;;;;;;;;;;5072551;28;20054;-76
2023/10/13 01:26:58;;;;;;;11.68;5.72;;;;;;;;;;5068795;28;20115;-75
2023/10/13 01:29:28;;;;;;;13.98;5.93;;;;;;;;;;5086433;28;20176;-75
2023/10/13 01:31:54;;;;;;;12.55;5.85;;;;;;;;;;5089989;28;20016;-75
2023/10/13 01:34:24;;;;;;;9.02;5.22;;;;;;;;;;5071919;28;20196;-75
2023/10/13 01:36:54;;;;;;;12.43;5.57;;;;;;;;;;5068620;28;20029;-76
2023/10/13 01:39:26;;;;;;;13.27;5.43;;;;;;;;;;5069258;28;20055;-76
2023/10/13 01:41:55;;;;;;;9.52;5.22;;;;;;;;;;5073993;28;20020;-76
2023/10/13 01:44:27;;;;;;;9.43;5.47;;;;;;;;;;5092205;28;20040;-76
2023/10/13 01:46:53;;;;;;;11.20;4.80;;;;;;;;;;5090157;28;20032;-74
2023/10/13 01:49:21;;;;;;;9.85;4.63;;;;;;;;;;5108649;28;20095;-76
2023/10/13 01:51:47;;;;;;;10.80;5.03;;;;;;;;;;5059481;28;20112;-75
2023/10/13 01:54:15;;;;;;;9.80;5.05;;;;;;;;;;5067953;28;20063;-75
2023/10/13 01:56:50;;;;;;;9.82;4.75;;;;;;;;;;5074124;28;20032;-75
2023/10/13 01:59:17;;;;;;;9.85;5.07;;;;;;;;;;5072457;28;20346;-75
2023/10/13 02:01:42;;;;;;;10.43;4.70;;;;;;;;;;5071602;28;20493;-75
2023/10/13 02:04:10;;;;;;;10.95;4.88;;;;;;;;;;5092690;28;20024;-75
2023/10/13 02:06:37;;;;;;;9.70;5.22;;;;;;;;;;5092019;28;20047;-75
2023/10/13 02:09:25;;;;;;;11.77;5.82;;;;;;;;;;5078553;28;20033;-75
2023/10/13 02:11:56;;;;;;;12.20;5.18;;;;;;;;;;5070844;28;20028;-75
2023/10/13 02:14:22;;;;;;;9.98;5.18;;;;;;;;;;5070553;28;20404;-75
2023/10/13 02:16:50;;;;;;;10.90;5.90;;;;;;;;;;5070551;28;20032;-75
2023/10/13 02:19:19;;;;;;;8.98;5.18;;;;;;;;;;5071164;28;20105;-75
2023/10/13 02:21:45;;;;;;;9.38;5.82;;;;;;;;;;5072377;28;20032;-75
2023/10/13 02:24:18;;;;;;;47.95;28.50;;;;;;;;;;5071339;28;20033;-75
2023/10/13 02:26:47;;;;;;;13.27;7.55;;;;;;;;;;5071274;28;20071;-78
2023/10/13 02:29:13;;;;;;;14.07;5.53;;;;;;;;;;5075923;28;20039;-79
2023/10/13 02:31:40;;;;;;;14.25;5.55;;;;;;;;;;5076157;28;20029;-78
2023/10/13 02:34:12;;;;;;;10.23;5.28;;;;;;;;;;5093119;28;20181;-78
2023/10/13 02:36:58;;;;;;;9.77;5.50;;;;;;;;;;5095912;28;20031;-79
2023/10/13 02:39:27;;;;;;;10.43;6.03;;;;;;;;;;5076072;28;20036;-79
2023/10/13 02:41:55;;;;;;;14.15;6.15;;;;;;;;;;5071437;28;20450;-79
2023/10/13 02:44:28;;;;;;;13.20;5.60;;;;;;;;;;5092584;28;20055;-79
2023/10/13 02:46:58;;;;;;;8.18;5.15;;;;;;;;;;5093338;28;20039;-80
2023/10/13 02:49:31;;;;;;;9.75;6.55;;;;;;;;;;5076818;28;20028;-79
2023/10/13 02:51:58;;;;;;;13.38;5.38;;;;;;;;;;5071800;28;20017;-79
2023/10/13 02:54:30;;;;;;;13.57;5.47;;;;;;;;;;5071431;28;20068;-79
2023/10/13 02:57:03;;;;;;;10.57;6.03;;;;;;;;;;5075339;28;20025;-79
2023/10/13 02:59:46;;;;;;;11.10;5.63;;;;;;;;;;5081146;28;20051;-77
2023/10/13 03:02:29;;;;;;;10.40;6.07;;;;;;;;;;5086487;28;20111;-79
2023/10/13 03:05:00;;;;;;;11.13;5.55;;;;;;;;;;5070763;28;20067;-80
2023/10/13 03:07:28;;;;;;;13.03;6.60;;;;;;;;;;5071232;28;20632;-78
2023/10/13 03:09:57;;;;;;;15.88;6.22;;;;;;;;;;5071254;28;20123;-79
2023/10/13 03:12:33;;;;;;;11.95;6.28;;;;;;;;;;5070034;28;20032;-74
2023/10/13 03:15:11;;;;;;;12.60;6.38;;;;;;;;;;5070143;28;20045;-74
2023/10/13 03:17:40;;;;;;;15.90;6.65;;;;;;;;;;5070024;28;20107;-74
2023/10/13 03:20:06;;;;;;;15.43;6.72;;;;;;;;;;5069720;28;20054;-74
2023/10/13 03:22:33;;;;;;;11.30;7.00;;;;;;;;;;5073778;28;20715;-74
2023/10/13 03:25:06;;;;;;;12.05;6.95;;;;;;;;;;5090750;28;20024;-74
2023/10/13 03:28:01;;;;;;;13.02;7.00;;;;;;;;;;5088768;28;20115;-75
2023/10/13 03:30:38;;;;;;;11.73;7.40;;;;;;;;;;5071278;28;20079;-74
2023/10/13 03:33:14;;;;;;;15.00;6.35;;;;;;;;;;5071048;28;20105;-74
2023/10/13 03:35:42;;;;;;;13.48;6.57;;;;;;;;;;5071020;28;20759;-74
2023/10/13 03:38:18;;;;;;;16.42;6.47;;;;;;;;;;5069472;28;20028;-76
2023/10/13 03:40:56;;;;;;;11.25;6.22;;;;;;;;;;5069521;28;20039;-75
2023/10/13 03:43:23;;;;;;;13.70;7.20;;;;;;;;;;5069504;28;20020;-74
2023/10/13 03:46:00;;;;;;;15.43;7.28;;;;;;;;;;5071246;28;20032;-75
2023/10/13 03:51:03;;;;;;;13.30;6.32;;;;;;;;;;5071367;28;20043;-75
2023/10/13 03:53:50;;;;;;;13.55;6.97;;;;;;;;;;5069687;28;20028;-75
2023/10/13 03:56:15;;;;;;;13.27;7.25;;;;;;;;;;5069506;28;20033;-74
2023/10/13 03:58:48;;;;;;;13.27;6.82;;;;;;;;;;5070321;28;20366;-75
2023/10/13 04:01:17;;;;;;;10.40;6.72;;;;;;;;;;5069346;28;20029;-75
2023/10/13 04:03:57;;;;;;;14.93;6.80;;;;;;;;;;5069329;28;20028;-75
2023/10/13 04:17:22;;;;;;;20.40;7.53;;;;;;;;;;5090783;28;20147;-76
2023/10/13 04:30:59;;;;;;;14.00;6.85;;;;;;;;;;5075421;28;20023;-77
2023/10/13 04:33:35;;;;;;;12.68;6.95;;;;;;;;;;5074481;28;20037;-76
2023/10/13 04:47:07;;;;;;;17.95;8.35;;;;;;;;;;5069059;28;20031;-81
2023/10/13 04:52:38;;;;;;;18.42;7.65;;;;;;;;;;5064292;28;20028;-76
2023/10/13 04:55:24;;;;;;;13.55;8.10;;;;;;;;;;5060312;28;20346;-80
2023/10/13 04:58:00;;;;;;;17.38;8.07;;;;;;;;;;5067932;28;20086;-76
2023/10/13 05:44:32;;;;;;;12.85;7.75;;;;;;;;;;5044312;28;20048;-78
2023/10/13 05:44:37;;;;;;;13.10;6.25;;;;;;;;;;5066824;28;20043;-74
2023/10/13 05:50:04;;;;;;;;;;;;;;;;;;5067044;28;20043;-73
2023/10/13 06:31:01;;;;;;;10.80;6.38;;;;;;;;;;5076159;28;20142;-74
2023/10/13 06:33:33;;;;;;;7.80;4.35;;;;;;;;;;5073876;28;20027;-75
2023/10/13 06:36:03;;;;;;;8.77;5.00;;;;;;;;;;5071133;28;20380;-74
2023/10/13 06:38:36;;;;;;;7.20;4.82;;;;;;;;;;5076185;28;20055;-75
2023/10/13 06:41:30;;;;;;;12.85;5.30;;;;;;;;;;5072481;28;20032;-76
2023/10/13 06:44:05;;;;;;;14.43;6.45;;;;;;;;;;5064560;28;20029;-76
2023/10/13 06:46:33;;;;;;;13.27;5.97;;;;;;;;;;5066302;28;20024;-74
2023/10/13 06:49:02;;;;;;;7.28;5.35;;;;;;;;;;5066195;28;20048;-76
2023/10/13 06:51:31;;;;;;;15.93;6.53;;;;;;;;;;5063604;28;20113;-74
2023/10/13 06:53:57;;;;;;;13.10;5.75;;;;;;;;;;5067277;28;20032;-74
2023/10/13 06:56:27;;;;;;;10.93;5.88;;;;;;;;;;5067006;28;20024;-74
2023/10/13 06:59:04;;;;;;;7.68;4.63;;;;;;;;;;5066656;28;20515;-76
2023/10/13 07:01:41;;;;;;;7.13;5.00;;;;;;;;;;5063615;28;20185;-75
2023/10/13 07:04:14;;;;;;;13.52;5.22;;;;;;;;;;5055818;28;20524;-76
2023/10/13 07:06:51;;;;;;;12.93;5.43;;;;;;;;;;5063003;28;20108;-77
2023/10/13 07:12:01;;;;;;;8.18;5.05;;;;;;;;;;5063602;28;20028;-75
2023/10/13 07:14:27;;;;;;;14.20;5.05;;;;;;;;;;5063516;28;20040;-79
2023/10/13 07:17:00;;;;;;;12.65;5.75;;;;;;;;;;5063836;28;20039;-76
2023/10/13 07:19:34;;;;;;;14.50;6.05;;;;;;;;;;5058753;28;20051;-77
2023/10/13 07:22:27;;;;;;;10.77;5.75;;;;;;;;;;5066261;28;20082;-75
2023/10/13 07:24:53;;;;;;;11.13;5.32;;;;;;;;;;5059711;28;20032;-75
2023/10/13 07:27:23;;;;;;;11.98;4.70;;;;;;;;;;5062428;28;20077;-74
2023/10/13 07:29:56;;;;;;;15.27;5.75;;;;;;;;;;5058269;28;20060;-77
2023/10/13 07:32:26;;;;;;;16.92;7.00;;;;;;;;;;5064594;28;20029;-75
2023/10/13 07:34:57;;;;;;;10.55;5.28;;;;;;;;;;5059016;28;20039;-80
2023/10/13 07:37:29;;;;;;;13.27;5.13;;;;;;;;;;5059133;28;20079;-73
2023/10/13 07:39:57;;;;;;;12.32;4.60;;;;;;;;;;5059491;28;20047;-75
2023/10/13 07:42:30;;;;;;;18.30;6.43;;;;;;;;;;5054642;28;20428;-73
2023/10/13 07:44:57;;;;;;;10.48;4.68;;;;;;;;;;5059878;28;20545;-79
2023/10/13 07:47:24;;;;;;;16.60;5.75;;;;;;;;;;5061618;28;20028;-79
2023/10/13 07:49:50;;;;;;;8.63;4.30;;;;;;;;;;5044293;28;20035;-75
2023/10/13 07:54:55;;;;;;;11.23;5.15;;;;;;;;;;5050594;28;20036;-79
2023/10/13 07:57:29;;;;;;;8.85;4.85;;;;;;;;;;5059190;28;20834;-79
2023/10/13 08:00:06;;;;;;;9.70;4.05;;;;;;;;;;5056606;28;20028;-72
2023/10/13 08:02:48;;;;;;;7.57;4.03;;;;;;;;;;5060371;28;20382;-75
2023/10/13 08:05:14;;;;;;;9.52;4.13;;;;;;;;;;5059468;28;20382;-75
2023/10/13 08:07:41;;;;;;;8.55;5.18;;;;;;;;;;5055910;28;20069;-76
2023/10/13 08:10:10;;;;;;;7.88;4.03;;;;;;;;;;5058103;28;20433;-74
2023/10/13 08:12:37;;;;;;;16.13;9.57;;;;;;;;;;5055751;28;20423;-76
2023/10/13 08:15:21;;;;;;;11.52;4.47;;;;;;;;;;5056477;28;20034;-77
2023/10/13 08:17:51;;;;;;;6.80;4.78;;;;;;;;;;5055246;28;20215;-76
2023/10/13 08:20:17;;;;;;;9.70;4.07;;;;;;;;;;5056924;28;20048;-76
2023/10/13 08:22:48;;;;;;;9.25;3.88;;;;;;;;;;5057121;28;20113;-72
2023/10/13 08:28:46;;;;;;;9.52;4.07;;;;;;;;;;5042751;28;20039;-78
2023/10/13 08:30:54;;;;;;;8.95;4.32;;;;;;;;;;5060410;28;20031;-76
2023/10/13 08:33:24;;;;;;;10.98;4.68;;;;;;;;;;5066625;28;20024;-74
2023/10/13 08:36:17;;;;;;;8.32;3.95;;;;;;;;;;5059408;28;20464;-74
2023/10/13 08:38:50;;;;;;;6.63;3.78;;;;;;;;;;5059222;28;20032;-76
2023/10/13 08:43:50;;;;;;;5.82;3.08;;;;;;;;;;5052506;28;20485;-77
2023/10/13 08:46:28;;;;;;;10.90;3.92;;;;;;;;;;5057669;28;20025;-74
2023/10/13 08:49:15;;;;;;;5.88;3.50;;;;;;;;;;5056476;28;20036;-74
2023/10/13 08:51:45;;;;;;;11.20;4.97;;;;;;;;;;5057573;28;20041;-73
2023/10/13 08:54:33;;;;;;;9.20;3.40;;;;;;;;;;5061111;28;20036;-73
2023/10/13 08:57:19;;;;;;;9.15;4.82;;;;;;;;;;5045890;28;20028;-75
2023/10/13 08:59:55;;;;;;;6.95;3.42;;;;;;;;;;5052928;28;20073;-76
2023/10/13 09:02:59;;;;;;;8.70;3.63;;;;;;;;;;5051154;28;20115;-76
2023/10/13 09:05:41;;;;;;;8.20;3.92;;;;;;;;;;5068843;28;20548;-76
2023/10/13 09:07:55;;;;;;;7.28;3.92;;;;;;;;;;5063195;28;20115;-73
2023/10/13 09:10:44;;;;;;;9.43;3.63;;;;;;;;;;5059350;28;20678;-76
2023/10/13 09:13:18;;;;;;;10.55;4.03;;;;;;;;;;5062813;28;20493;-75
2023/10/13 09:16:07;;;;;;;11.18;4.15;;;;;;;;;;5051673;28;20060;-78
2023/10/13 09:18:46;;;;;;;10.00;3.60;;;;;;;;;;5063128;28;20036;-75
2023/10/13 09:24:27;;;;;;;7.38;3.90;;;;;;;;;;5066160;28;21020;-74
2023/10/13 09:27:05;;;;;;;10.18;4.10;;;;;;;;;;5068329;28;20048;-77
2023/10/13 09:29:38;;;;;;;12.65;3.78;;;;;;;;;;5065738;28;20032;-76
2023/10/13 09:32:11;;;;;;;14.30;4.07;;;;;;;;;;5073925;28;20036;-77
2023/10/13 09:34:41;;;;;;;18.45;6.40;;;;;;;;;;5068978;28;20028;-77
2023/10/13 09:37:13;;;;;;;9.30;4.30;;;;;;;;;;5071063;28;20028;-77
2023/10/13 09:39:52;;;;;;;8.93;4.43;;;;;;;;;;5071131;28;20087;-77
2023/10/13 09:42:23;;;;;;;9.82;4.60;;;;;;;;;;5072197;28;20467;-77
2023/10/13 09:45:04;;;;;;;9.20;4.53;;;;;;;;;;5073309;28;20032;-77
2023/10/13 09:47:47;;;;;;;13.77;4.70;;;;;;;;;;5064966;28;20047;-78
2023/10/13 09:50:24;;;;;;;10.15;5.43;;;;;;;;;;5077392;28;20111;-78
2023/10/13 09:52:52;;;;;;;7.28;4.30;;;;;;;;;;5081488;28;20097;-78
2023/10/13 09:55:30;;;;;;;13.32;4.68;;;;;;;;;;5055357;28;20029;-77
2023/10/13 09:58:17;;;;;;;11.25;4.47;;;;;;;;;;5078900;28;20028;-76
2023/10/13 10:00:49;;;;;;;7.97;4.38;;;;;;;;;;5061486;28;20024;-80
2023/10/13 10:03:15;;;;;;;10.57;4.25;;;;;;;;;;5067474;28;20054;-78
2023/10/13 10:05:49;;;;;;;8.52;4.45;;;;;;;;;;5064565;28;20024;-77
2023/10/13 10:08:31;;;;;;;7.57;4.10;;;;;;;;;;5065048;28;20059;-77
2023/10/13 10:11:07;;;;;;;9.95;4.18;;;;;;;;;;5062124;28;20054;-78
2023/10/13 10:14:25;;;;;;;11.95;4.75;;;;;;;;;;5069225;28;20059;-80
2023/10/13 10:17:02;;;;;;;11.15;4.40;;;;;;;;;;5074728;28;20044;-79
2023/10/13 10:19:35;;;;;;;9.75;3.92;;;;;;;;;;5070559;28;20113;-79
2023/10/13 10:22:16;;;;;;;12.00;5.05;;;;;;;;;;5069140;28;20027;-79
2023/10/13 10:24:43;;;;;;;13.05;5.05;;;;;;;;;;5067039;28;20436;-79
2023/10/13 10:27:15;;;;;;;12.20;4.22;;;;;;;;;;5067425;28;20052;-75
2023/10/13 10:29:54;;;;;;;7.80;3.80;;;;;;;;;;5065462;28;20032;-73
2023/10/13 10:32:20;;;;;;;9.02;4.22;;;;;;;;;;5058144;28;20034;-75
2023/10/13 10:34:46;;;;;;;18.45;4.78;;;;;;;;;;5063773;28;20036;-73
2023/10/13 10:37:16;;;;;;;16.60;4.78;;;;;;;;;;5062316;28;20073;-73
2023/10/13 10:39:46;;;;;;;11.88;4.03;;;;;;;;;;5056803;28;20131;-76
2023/10/13 10:42:17;;;;;;;12.02;4.40;;;;;;;;;;5066954;28;20020;-76
2023/10/13 10:44:47;;;;;;;13.05;5.28;;;;;;;;;;5066437;28;20032;-76
2023/10/13 10:47:36;;;;;;;8.90;4.00;;;;;;;;;;5063144;28;20131;-73
2023/10/13 10:50:26;;;;;;;10.68;4.65;;;;;;;;;;5054859;28;20418;-73
2023/10/13 10:52:57;;;;;;;11.40;5.38;;;;;;;;;;5058776;28;20137;-73
2023/10/13 10:55:28;;;;;;;11.70;3.92;;;;;;;;;;5061229;28;20031;-73
2023/10/13 10:58:05;;;;;;;15.82;4.65;;;;;;;;;;5066176;28;20047;-73
2023/10/13 11:01:01;;;;;;;10.65;4.07;;;;;;;;;;5057311;28;20028;-75
2023/10/13 11:03:37;;;;;;;11.13;4.40;;;;;;;;;;5060191;28;20134;-76
2023/10/13 11:06:15;;;;;;;10.13;4.22;;;;;;;;;;5059760;28;20093;-76
2023/10/13 11:08:50;;;;;;;12.43;4.82;;;;;;;;;;5064698;28;20028;-81
2023/10/13 11:11:34;;;;;;;26.23;5.75;;;;;;;;;;5074654;28;20062;-76
2023/10/13 11:14:22;;;;;;;7.82;3.78;;;;;;;;;;5065084;28;20039;-76
2023/10/13 11:17:13;;;;;;;15.38;4.10;;;;;;;;;;5063144;28;20017;-77
2023/10/13 11:19:44;;;;;;;8.80;4.50;;;;;;;;;;5062414;28;20111;-78
2023/10/13 11:22:35;;;;;;;17.23;4.90;;;;;;;;;;5063635;27;20076;-76
2023/10/13 11:25:09;;;;;;;12.00;4.38;;;;;;;;;;5065521;28;20135;-78
2023/10/13 11:30:49;;;;;;;18.52;4.55;;;;;;;;;;5064553;28;20040;-77
2023/10/13 11:33:11;;;;;;;11.15;4.18;;;;;;;;;;5060152;28;20054;-77
2023/10/13 11:48:41;;;;;;;7.13;4.75;;;;;;;;;;5073548;28;20039;-78
2023/10/13 11:51:17;;;;;;;10.38;4.40;;;;;;;;;;5050189;28;20032;-78
2023/10/13 11:53:51;;;;;;;11.75;4.72;;;;;;;;;;5063608;28;20035;-78
2023/10/13 11:56:20;;;;;;;11.52;4.35;;;;;;;;;;5066216;28;20074;-78
2023/10/13 11:58:46;;;;;;;11.15;4.28;;;;;;;;;;5071391;28;20333;-78
2023/10/13 12:11:47;;;;;;;10.80;3.75;;;;;;;;;;5066307;28;20029;-78
2023/10/13 12:14:17;;;;;;;10.70;3.28;;;;;;;;;;5063310;28;20067;-78
2023/10/13 12:16:48;;;;;;;6.93;3.15;;;;;;;;;;5058765;28;20090;-79
2023/10/13 12:19:23;;;;;;;15.40;3.25;;;;;;;;;;5064707;28;20029;-78
2023/10/13 12:21:55;;;;;;;6.53;2.90;;;;;;;;;;5062464;28;20066;-78
2023/10/13 12:27:03;;;;;;;5.85;3.47;;;;;;;;;;5069100;28;20556;-79
2023/10/13 12:29:29;;;;;;;9.52;3.55;;;;;;;;;;5068905;28;20035;-77
2023/10/13 12:32:08;;;;;;;11.55;3.97;;;;;;;;;;5064252;28;20039;-77
2023/10/13 12:35:44;;;;;;;10.00;3.15;;;;;;;;;;5053317;28;20069;-78
2023/10/13 12:54:04;;;;;;;7.50;3.05;;;;;;;;;;5060279;28;20040;-78
2023/10/13 12:56:30;;;;;;;8.65;3.47;;;;;;;;;;5047469;28;20040;-79
2023/10/13 12:58:57;;;;;;;7.20;3.50;;;;;;;;;;5061183;28;20032;-78
2023/10/13 13:01:32;;;;;;;9.10;3.25;;;;;;;;;;5062402;28;20396;-77
2023/10/13 13:03:58;;;;;;;5.72;2.72;;;;;;;;;;5060019;28;20111;-78
2023/10/13 13:06:29;;;;;;;8.50;3.10;;;;;;;;;;5077679;28;20923;-78
2023/10/13 13:08:59;;;;;;;14.93;5.30;;;;;;;;;;5068875;28;20186;-77
2023/10/13 13:11:25;;;;;;;8.52;3.15;;;;;;;;;;5066598;28;20032;-78
2023/10/13 13:13:51;;;;;;;12.15;3.72;;;;;;;;;;5068935;28;20036;-78
2023/10/13 13:16:18;;;;;;;6.75;2.78;;;;;;;;;;5067563;28;20472;-77
2023/10/13 13:18:47;;;;;;;9.20;3.60;;;;;;;;;;5074325;28;20169;-78
2023/10/13 13:21:19;;;;;;;13.55;3.58;;;;;;;;;;5068064;28;20064;-77
2023/10/13 13:23:46;;;;;;;13.77;3.28;;;;;;;;;;5071108;28;20028;-77
2023/10/13 13:26:17;;;;;;;7.22;3.55;;;;;;;;;;5068397;28;20062;-78
2023/10/13 13:28:45;;;;;;;11.02;2.92;;;;;;;;;;5072386;28;20415;-76
2023/10/13 13:31:15;;;;;;;11.73;3.60;;;;;;;;;;5068443;28;20072;-77
2023/10/13 13:33:43;;;;;;;12.10;3.78;;;;;;;;;;5070527;28;20089;-77
2023/10/13 13:36:15;;;;;;;9.65;3.33;;;;;;;;;;5030733;28;20182;-78
2023/10/13 13:38:45;;;;;;;10.10;3.50;;;;;;;;;;5058652;28;20544;-77
2023/10/13 13:41:16;;;;;;;7.90;3.43;;;;;;;;;;5038700;28;20168;-79
2023/10/13 13:43:55;;;;;;;15.05;3.78;;;;;;;;;;5038487;28;20305;-78
2023/10/13 13:46:27;;;;;;;7.28;2.90;;;;;;;;;;5033465;28;20045;-80
2023/10/13 13:49:01;;;;;;;8.00;3.80;;;;;;;;;;5042857;28;20102;-79
2023/10/13 13:51:28;;;;;;;11.00;3.05;;;;;;;;;;5033549;28;20760;-78
2023/10/13 13:53:55;;;;;;;9.75;3.20;;;;;;;;;;5009675;28;20049;-79
2023/10/13 13:56:25;;;;;;;7.60;3.72;;;;;;;;;;5056464;28;20179;-80
2023/10/13 13:58:55;;;;;;;8.70;4.35;;;;;;;;;;5011647;28;20068;-77
2023/10/13 14:01:25;;;;;;;14.07;5.80;;;;;;;;;;5032147;28;20041;-78
2023/10/13 14:03:56;;;;;;;6.18;3.20;;;;;;;;;;5036809;28;20097;-77
2023/10/13 14:06:24;;;;;;;;;;;;;;;;;;5040875;28;20254;-78
2023/10/13 14:08:54;;;;;;;8.63;3.03;;;;;;;;;;5038781;28;20353;-76
2023/10/13 14:14:33;;;;;;;8.98;2.88;;;;;;;;;;5036124;28;20799;-76
2023/10/13 14:17:09;;;;;;;5.47;3.00;;;;;;;;;;5047679;28;20052;-76
2023/10/13 14:19:40;;;;;;;8.13;3.00;;;;;;;;;;5046136;28;20030;-76
2023/10/13 14:22:06;;;;;;;8.25;3.13;;;;;;;;;;5028481;28;20357;-78
2023/10/13 14:24:35;;;;;;;8.73;3.97;;;;;;;;;;5028653;28;20604;-78
2023/10/13 14:27:08;;;;;;;9.18;3.10;;;;;;;;;;5011672;28;20116;-76
2023/10/13 14:29:40;;;;;;;8.27;2.80;;;;;;;;;;5034418;28;20030;-78
2023/10/13 14:32:12;;;;;;;12.20;3.30;;;;;;;;;;5027830;28;20034;-76
2023/10/13 14:34:41;;;;;;;10.57;3.92;;;;;;;;;;5030935;28;20025;-78
2023/10/13 14:37:08;;;;;;;5.95;3.13;;;;;;;;;;5029539;28;20030;-79
2023/10/13 14:39:36;;;;;;;9.55;3.10;;;;;;;;;;5070097;28;20040;-77
2023/10/13 14:42:05;;;;;;;9.57;2.90;;;;;;;;;;5054676;28;20025;-77
2023/10/13 14:44:35;;;;;;;7.03;3.05;;;;;;;;;;5034326;28;20041;-76
2023/10/13 14:47:08;;;;;;;7.35;2.85;;;;;;;;;;5035600;28;20021;-75
2023/10/13 14:49:35;;;;;;;11.48;3.22;;;;;;;;;;5035632;28;20402;-79
2023/10/13 14:52:02;;;;;;;6.32;2.65;;;;;;;;;;5034549;28;20108;-78
2023/10/13 14:54:33;;;;;;;5.00;2.83;;;;;;;;;;5053654;28;20470;-77
2023/10/13 14:57:00;;;;;;;8.55;3.22;;;;;;;;;;5051210;28;20037;-78
2023/10/13 14:59:27;;;;;;;6.60;2.85;;;;;;;;;;5050625;28;20516;-77
2023/10/13 15:01:53;;;;;;;7.95;3.17;;;;;;;;;;5049946;28;20045;-79
2023/10/13 15:04:24;;;;;;;6.90;2.72;;;;;;;;;;5068372;28;20089;-78
2023/10/13 15:06:52;;;;;;;6.13;2.75;;;;;;;;;;5056792;28;20136;-76
2023/10/13 15:09:23;;;;;;;7.50;3.20;;;;;;;;;;5048214;28;20025;-78
2023/10/13 15:11:53;;;;;;;8.45;3.03;;;;;;;;;;5030909;28;20072;-77
2023/10/13 15:14:22;;;;;;;6.82;2.75;;;;;;;;;;5060331;28;20136;-77
2023/10/13 15:16:49;;;;;;;17.63;6.38;;;;;;;;;;5050374;28;20035;-78
2023/10/13 15:19:18;;;;;;;13.48;4.82;;;;;;;;;;5049803;28;20029;-78
2023/10/13 15:21:49;;;;;;;8.25;3.05;;;;;;;;;;5041050;28;20037;-77
2023/10/13 15:24:16;;;;;;;11.05;3.47;;;;;;;;;;5047214;28;20536;-77
2023/10/13 15:26:47;;;;;;;11.18;2.85;;;;;;;;;;5051278;28;20040;-77
2023/10/13 15:29:17;;;;;;;6.03;2.78;;;;;;;;;;5049897;28;20034;-77
2023/10/13 15:34:26;;;;;;;9.30;3.67;;;;;;;;;;5031722;28;20029;-78
2023/10/13 15:36:52;;;;;;;6.95;3.22;;;;;;;;;;5029704;28;20121;-77
2023/10/13 15:39:23;;;;;;;8.93;2.90;;;;;;;;;;5029990;28;20034;-77
2023/10/13 15:41:52;;;;;;;;;;;;;;;;;;5046411;28;20029;-77
2023/10/13 15:44:20;;;;;;;4.10;2.38;;;;;;;;;;5031516;28;20000;-78
2023/10/13 15:46:49;;;;;;;5.70;2.70;;;;;;;;;;5031981;28;20478;-77
2023/10/13 15:49:17;;;;;;;6.63;2.60;;;;;;;;;;5050028;28;20026;-76
2023/10/13 15:51:43;;;;;;;10.98;3.75;;;;;;;;;;5035784;28;20120;-77
2023/10/13 15:54:15;;;;;;;10.18;3.25;;;;;;;;;;5061929;28;20031;-77
2023/10/13 15:56:44;;;;;;;11.10;3.38;;;;;;;;;;5060173;28;20036;-76
2023/10/13 15:59:10;;;;;;;11.50;3.38;;;;;;;;;;5033458;28;20059;-75
2023/10/13 16:01:38;;;;;;;7.47;3.30;;;;;;;;;;5030774;28;20033;-76
2023/10/13 16:04:10;;;;;;;9.40;3.75;;;;;;;;;;5065129;28;20660;-75
2023/10/13 16:06:46;;;;;;;10.57;3.97;;;;;;;;;;5050413;28;20048;-75
2023/10/13 16:09:22;;;;;;;13.38;5.05;;;;;;;;;;5030081;28;20095;-74
2023/10/13 16:11:49;;;;;;;21.80;8.18;;;;;;;;;;5045951;28;20032;-75
2023/10/13 16:14:18;;;;;;;17.80;5.22;;;;;;;;;;5030597;28;20049;-74
2023/10/13 16:16:48;;;;;;;21.75;5.38;;;;;;;;;;5029096;28;20712;-76
2023/10/13 16:19:23;;;;;;;16.52;6.28;;;;;;;;;;5048272;28;20672;-77
2023/10/13 16:21:52;;;;;;;14.45;4.97;;;;;;;;;;5052041;28;20053;-76
2023/10/13 16:24:18;;;;;;;13.98;5.47;;;;;;;;;;5045571;28;20489;-76
2023/10/13 16:26:49;;;;;;;9.65;4.55;;;;;;;;;;5028934;28;20025;-76
2023/10/13 16:29:18;;;;;;;11.20;4.68;;;;;;;;;;5042312;28;20025;-76
2023/10/13 16:31:45;;;;;;;15.77;5.93;;;;;;;;;;5048455;28;20119;-76
2023/10/13 16:34:15;;;;;;;10.02;4.72;;;;;;;;;;5033888;28;20061;-76
2023/10/13 16:36:43;;;;;;;20.88;7.97;;;;;;;;;;5029964;28;20036;-77
2023/10/13 16:39:14;;;;;;;26.38;13.32;;;;;;;;;;5045208;28;20029;-76
2023/10/13 16:41:41;;;;;;;27.05;8.93;;;;;;;;;;5030561;28;20041;-78
2023/10/13 16:44:09;;;;;;;16.73;5.43;;;;;;;;;;5034724;28;20021;-78
2023/10/13 16:46:39;;;;;;;24.92;7.28;;;;;;;;;;5031707;28;20454;-78
2023/10/13 16:49:06;;;;;;;14.88;4.93;;;;;;;;;;5047192;28;20079;-79
2023/10/13 16:51:33;;;;;;;10.35;4.30;;;;;;;;;;5030918;28;20025;-77
2023/10/13 16:53:58;;;;;;;8.55;4.70;;;;;;;;;;5030892;28;20033;-78
2023/10/13 16:56:24;;;;;;;11.32;3.85;;;;;;;;;;5029908;28;20559;-77
2023/10/13 16:58:54;;;;;;;8.57;3.63;;;;;;;;;;5044481;28;20130;-79
2023/10/13 17:01:21;;;;;;;11.00;3.38;;;;;;;;;;5050537;28;20025;-78
2023/10/13 17:03:49;;;;;;;7.05;4.43;;;;;;;;;;5051939;28;20032;-77
2023/10/13 17:06:16;;;;;;;13.18;3.97;;;;;;;;;;5053788;28;20024;-77
2023/10/13 17:08:42;;;;;;;8.80;3.30;;;;;;;;;;5047346;28;20033;-77
2023/10/13 17:11:11;;;;;;;14.98;4.45;;;;;;;;;;5048313;28;20030;-77
2023/10/13 17:13:41;;;;;;;10.23;3.40;;;;;;;;;;5052613;28;20053;-77
2023/10/13 17:16:18;;;;;;;9.40;3.72;;;;;;;;;;5034959;28;20052;-73
2023/10/13 17:18:49;;;;;;;8.65;4.03;;;;;;;;;;5032411;28;20060;-75
2023/10/13 17:21:21;;;;;;;10.68;4.13;;;;;;;;;;5032286;28;20029;-76
2023/10/13 17:23:52;;;;;;;10.43;3.45;;;;;;;;;;5048762;28;20044;-75
2023/10/13 17:26:18;;;;;;;9.15;4.00;;;;;;;;;;5015834;28;20129;-74
2023/10/13 17:28:44;;;;;;;7.03;3.70;;;;;;;;;;5032344;28;20474;-74
2023/10/13 17:31:10;;;;;;;12.48;3.78;;;;;;;;;;5032364;28;20115;-74
2023/10/13 17:33:39;;;;;;;13.00;4.68;;;;;;;;;;5015473;28;20041;-75
2023/10/13 17:36:11;;;;;;;9.38;4.38;;;;;;;;;;5031894;28;20061;-74
2023/10/13 17:38:38;;;;;;;8.02;3.47;;;;;;;;;;5041511;28;20028;-74
2023/10/13 17:41:04;;;;;;;8.68;4.25;;;;;;;;;;5051959;28;20029;-75
2023/10/13 17:43:36;;;;;;;9.55;4.32;;;;;;;;;;5045642;28;20461;-75
2023/10/13 17:46:10;;;;;;;8.23;3.88;;;;;;;;;;5033217;28;20057;-75
2023/10/13 17:48:36;;;;;;;11.20;4.82;;;;;;;;;;5059216;28;20024;-75
2023/10/13 17:51:09;;;;;;;11.02;4.28;;;;;;;;;;5055354;28;20070;-75
2023/10/13 17:53:37;;;;;;;10.15;4.45;;;;;;;;;;5043061;28;20112;-75
2023/10/13 17:56:15;;;;;;;9.70;4.70;;;;;;;;;;5028685;28;20061;-75
2023/10/13 17:58:42;;;;;;;8.60;3.92;;;;;;;;;;5026502;28;20025;-75
2023/10/13 18:01:17;;;;;;;16.05;4.57;;;;;;;;;;5031417;28;20461;-75
2023/10/13 18:03:47;;;;;;;10.95;4.05;;;;;;;;;;5033005;28;20041;-75
2023/10/13 18:06:23;;;;;;;11.85;4.55;;;;;;;;;;5034021;28;20057;-77
2023/10/13 18:08:50;;;;;;;12.10;4.30;;;;;;;;;;5049277;28;20111;-77
2023/10/13 18:11:17;;;;;;;13.52;4.60;;;;;;;;;;5032595;28;20052;-78
2023/10/13 18:13:46;;;;;;;12.68;5.95;;;;;;;;;;5052011;28;20053;-77
2023/10/13 18:16:21;;;;;;;9.68;4.43;;;;;;;;;;5059687;28;20048;-78
2023/10/13 18:18:50;;;;;;;9.15;3.58;;;;;;;;;;5072617;28;20350;-77